Bishop, Texas
Current Conditions -  °F | °C
As of 9:56 PM on Sunday 25 Jan 2015 (Local Time) from KNQI Reporting Station
Clear Clear  
Wind Chill: 13°   Ceiling: Unl
Heat Index: 13°   Visibility: 10mi
Dew Point:   Wind: 6mph
Humidity: 60%   Direction: 280°W
Pressure: 30.2"   Gusts: NA
Location:  27.59°N, 97.8°W
Report Text: KNQI 260356Z AUTO 28005KT 10SM CLR 13/06 A3020 RMK AO2 SLP224 T01330056 TSNO $
Loading
Personal Weather Stations






























Interactive Weather Map New forecast layout! Learn more

10-Day Weather Forecast

Advertisements
Track Severe Weather on mobile